Time;durP1;ratioP1;P1;durP2;ratioP2;P2;SDS_P1;SDS_P2;PMS_P1;PMS_P2;Temp;Humidity;BMP_temperature;BMP_pressure;BME280_temperature;BME280_humidity;BME280_pressure;Samples;Min_cycle;Max_cycle;Signal;HPM_P1;HPM_P2
2022/04/21 00:01:36;;;;;;;0.00;0.00;;;;;;;13.24;48.25;100734.88;7357673;19;20014;-64
2022/04/21 00:04:02;;;;;;;0.00;0.00;;;;;;;13.20;48.43;100738.47;7355845;19;20457;-63
2022/04/21 00:06:28;;;;;;;0.00;0.00;;;;;;;13.09;48.74;100719.63;7357321;19;20010;-63
2022/04/21 00:08:54;;;;;;;0.00;0.00;;;;;;;13.11;47.99;100728.28;7355367;19;20017;-65
2022/04/21 00:11:20;;;;;;;0.00;0.00;;;;;;;13.08;48.30;100728.41;7350136;19;20011;-65
2022/04/21 00:13:45;;;;;;;0.00;0.00;;;;;;;13.03;48.28;100721.56;7355558;19;20508;-64
2022/04/21 00:16:11;;;;;;;0.00;0.00;;;;;;;13.01;48.56;100718.16;7354335;19;20032;-65
2022/04/21 00:18:36;;;;;;;0.00;0.00;;;;;;;12.96;47.93;100718.28;7350672;19;20085;-65
2022/04/21 00:21:02;;;;;;;0.00;0.00;;;;;;;12.94;47.83;100713.09;7352584;19;20011;-64
2022/04/21 00:23:28;;;;;;;0.00;0.00;;;;;;;12.90;48.10;100718.50;7354071;19;20061;-63
2022/04/21 00:25:55;;;;;;;0.00;0.00;;;;;;;12.85;48.38;100715.16;7354523;19;19999;-63
2022/04/21 00:28:21;;;;;;;0.00;0.00;;;;;;;12.81;48.34;100711.78;7357551;19;20811;-63
2022/04/21 00:30:46;;;;;;;0.00;0.00;;;;;;;12.78;48.84;100708.41;7352053;19;20033;-64
2022/04/21 00:33:12;;;;;;;0.00;0.00;;;;;;;12.70;49.23;100696.41;7346720;19;20037;-63
2022/04/21 00:35:37;;;;;;;0.00;0.00;;;;;;;12.70;49.25;100691.16;7352142;19;20005;-61
2022/04/21 00:38:03;;;;;;;0.00;0.00;;;;;;;12.66;49.21;100702.63;7354511;19;20396;-64
2022/04/21 00:40:29;;;;;;;0.00;0.00;;;;;;;12.64;49.92;100707.06;7357070;19;20007;-62
2022/04/21 00:42:56;;;;;;;0.00;0.00;;;;;;;12.61;49.86;100706.31;7349705;19;20026;-64
2022/04/21 00:45:22;;;;;;;0.00;0.00;;;;;;;12.52;49.83;100689.13;7354398;19;20006;-63
2022/04/21 00:47:49;;;;;;;0.00;0.00;;;;;;;12.55;49.77;100696.88;7351500;19;20039;-64
2022/04/21 00:50:22;;;;;;;0.00;0.00;;;;;;;12.52;49.48;100697.00;7359329;19;20022;-65
2022/04/21 00:52:49;;;;;;;0.10;0.10;;;;;;;12.51;49.90;100690.00;7354226;19;20448;-63
2022/04/21 00:55:14;;;;;;;0.00;0.00;;;;;;;12.47;49.70;100691.03;7362786;19;20007;-63
2022/04/21 00:57:42;;;;;;;0.00;0.00;;;;;;;12.44;50.08;100697.22;7363332;19;20025;-63
2022/04/21 01:00:09;;;;;;;0.00;0.00;;;;;;;12.43;49.90;100686.78;7360773;19;20010;-64
2022/04/21 01:02:46;;;;;;;0.00;0.00;;;;;;;12.39;50.92;100679.91;7354256;19;20007;-65
2022/04/21 01:05:30;;;;;;;0.00;0.00;;;;;;;12.38;50.67;100693.94;7361501;19;21373;-65
2022/04/21 01:08:05;;;;;;;0.00;0.00;;;;;;;12.36;50.38;100690.47;7363723;19;20035;-64
2022/04/21 01:10:35;;;;;;;0.00;0.00;;;;;;;12.31;52.28;100687.13;7361328;19;20034;-65
2022/04/21 01:13:04;;;;;;;0.00;0.00;;;;;;;12.30;52.01;100685.44;7362957;19;20018;-64
2022/04/21 01:15:30;;;;;;;0.00;0.00;;;;;;;12.25;52.25;100682.09;7360136;19;20014;-63
2022/04/21 01:17:55;;;;;;;0.00;0.00;;;;;;;12.28;52.41;100682.88;7361864;19;20006;-65
2022/04/21 01:20:22;;;;;;;0.00;0.00;;;;;;;12.28;52.61;100676.78;7355890;19;20664;-64
2022/04/21 01:22:48;;;;;;;0.00;0.00;;;;;;;12.20;52.74;100666.53;7363521;19;20724;-64
2022/04/21 01:25:14;;;;;;;0.00;0.00;;;;;;;12.27;52.62;100680.31;7358989;19;20010;-64
2022/04/21 01:27:40;;;;;;;0.00;0.00;;;;;;;12.27;51.83;100675.94;7360777;19;20010;-64
2022/04/21 01:30:08;;;;;;;0.00;0.00;;;;;;;12.26;51.91;100674.19;7353993;19;20758;-64
2022/04/21 01:32:35;;;;;;;0.00;0.00;;;;;;;12.11;51.97;100653.69;7360643;19;20002;-62
2022/04/21 01:35:03;;;;;;;0.00;0.00;;;;;;;12.23;51.92;100674.28;7363923;19;20007;-63
2022/04/21 01:42:56;;;;;;;0.00;0.00;;;;;;;12.16;52.04;100673.59;7353246;19;20358;-65
2022/04/21 01:45:21;;;;;;;0.00;0.00;;;;;;;12.13;53.05;100671.09;7360687;19;20011;-64
2022/04/21 01:47:47;;;;;;;0.00;0.00;;;;;;;12.04;53.04;100654.78;7358069;19;20010;-62
2022/04/21 01:50:13;;;;;;;0.00;0.00;;;;;;;12.07;52.89;100660.81;7362429;19;20023;-64
2022/04/21 01:52:38;;;;;;;0.00;0.00;;;;;;;12.07;53.35;100663.44;7340692;19;20705;-64
2022/04/21 01:55:05;;;;;;;0.00;0.00;;;;;;;12.03;53.24;100661.78;7353569;19;20002;-63
2022/04/21 01:57:31;;;;;;;0.00;0.00;;;;;;;12.05;53.23;100665.22;7341361;19;20041;-63
2022/04/21 01:59:56;;;;;;;0.00;0.00;;;;;;;12.04;54.12;100662.66;7355668;19;20473;-65
2022/04/21 02:02:21;;;;;;;0.00;0.00;;;;;;;12.01;53.91;100663.56;7358238;19;20023;-63
2022/04/21 02:04:47;;;;;;;0.00;0.00;;;;;;;11.97;53.82;100656.75;7351399;19;20016;-62
2022/04/21 02:07:14;;;;;;;0.00;0.00;;;;;;;11.98;54.46;100658.47;7359124;19;20050;-64
2022/04/21 02:09:40;;;;;;;0.00;0.00;;;;;;;11.86;54.00;100638.75;7360256;19;20021;-64
2022/04/21 02:12:06;;;;;;;0.00;0.00;;;;;;;11.94;54.42;100657.69;7357734;19;20834;-65
2022/04/21 02:14:33;;;;;;;0.05;0.05;;;;;;;11.93;54.49;100657.72;7355534;19;20010;-65
2022/04/21 02:16:59;;;;;;;0.00;0.00;;;;;;;11.87;54.68;100644.84;7362336;19;20027;-65
2022/04/21 02:19:24;;;;;;;0.00;0.00;;;;;;;11.92;54.40;100656.03;7359571;19;20565;-63
2022/04/21 02:21:50;;;;;;;0.00;0.00;;;;;;;11.82;54.68;100641.50;7362546;19;20011;-64
2022/04/21 02:24:15;;;;;;;0.00;0.00;;;;;;;11.88;54.79;100652.63;7362278;19;20013;-64
2022/04/21 02:26:40;;;;;;;0.00;0.00;;;;;;;11.88;54.90;100657.84;7362266;19;19999;-63
2022/04/21 02:29:06;;;;;;;0.00;0.00;;;;;;;11.89;54.94;100653.47;7352445;19;20121;-64
2022/04/21 02:31:31;;;;;;;0.00;0.00;;;;;;;11.87;55.03;100658.78;7360081;19;20007;-65
2022/04/21 02:33:56;;;;;;;0.00;0.00;;;;;;;11.41;55.46;100573.72;7360956;19;20010;-64
2022/04/21 02:36:22;;;;;;;0.00;0.00;;;;;;;11.72;55.42;100629.53;7356283;19;20014;-63
2022/04/21 02:38:47;;;;;;;0.00;0.00;;;;;;;11.81;55.05;100642.34;7362361;19;20036;-64
2022/04/21 02:41:12;;;;;;;0.00;0.00;;;;;;;11.82;55.20;100646.72;7352261;19;20010;-63
2022/04/21 02:43:38;;;;;;;0.00;0.00;;;;;;;11.81;55.47;100651.06;7350005;19;20459;-65
2022/04/21 02:46:03;;;;;;;0.00;0.00;;;;;;;11.76;55.79;100633.75;7361856;19;20010;-65
2022/04/21 02:48:29;;;;;;;0.00;0.00;;;;;;;11.80;55.69;100643.25;7357586;19;20006;-63
2022/04/21 02:50:56;;;;;;;0.00;0.00;;;;;;;11.80;55.30;100638.00;7362477;19;20010;-64
2022/04/21 02:57:19;;;;;;;0.00;0.00;;;;;;;11.80;55.95;100638.00;7362403;19;20760;-63
2022/04/21 02:58:51;;;;;;;0.00;0.00;;;;;;;11.81;56.26;100645.84;7357100;19;20022;-63
2022/04/21 03:01:17;;;;;;;0.00;0.00;;;;;;;11.81;56.13;100637.09;7357273;19;20023;-63
2022/04/21 03:03:42;;;;;;;0.00;0.00;;;;;;;11.82;56.38;100644.09;7361123;19;20022;-64
2022/04/21 03:06:07;;;;;;;0.00;0.00;;;;;;;11.82;56.18;100641.50;7349186;19;20011;-64
2022/04/21 03:08:33;;;;;;;0.00;0.00;;;;;;;11.83;56.57;100637.97;7360754;19;20070;-63
2022/04/21 03:10:58;;;;;;;0.00;0.00;;;;;;;11.85;56.99;100641.38;7335938;19;20042;-64
2022/04/21 03:13:24;;;;;;;0.00;0.00;;;;;;;11.76;57.10;100621.56;7354721;19;20010;-64
2022/04/21 03:15:49;;;;;;;0.00;0.00;;;;;;;11.88;57.40;100646.53;7359489;19;20007;-64
2022/04/21 03:18:14;;;;;;;0.00;0.00;;;;;;;11.90;57.04;100639.50;7353148;19;20009;-65
2022/04/21 03:26:17;;;;;;;0.00;0.00;;;;;;;11.96;57.67;100652.38;7350234;19;20034;-65
2022/04/21 03:28:43;;;;;;;0.00;0.00;;;;;;;11.98;57.91;100655.84;7362985;19;20006;-63
2022/04/21 03:31:08;;;;;;;0.10;0.10;;;;;;;11.92;58.30;100641.19;7363420;19;20006;-64
2022/04/21 03:33:33;;;;;;;0.00;0.00;;;;;;;12.01;58.19;100647.88;7358092;19;20002;-64
2022/04/21 03:35:59;;;;;;;0.00;0.00;;;;;;;12.03;57.66;100655.72;7364437;19;20010;-63
2022/04/21 03:38:24;;;;;;;0.00;0.00;;;;;;;12.03;57.81;100646.09;7358892;19;20034;-63
2022/04/21 03:40:50;;;;;;;0.00;0.00;;;;;;;11.95;57.96;100627.97;7357662;19;20007;-63
2022/04/21 03:43:15;;;;;;;0.00;0.00;;;;;;;11.97;58.30;100630.56;7361099;19;20019;-65
2022/04/21 03:45:40;;;;;;;0.00;0.00;;;;;;;12.07;58.22;100637.25;7359631;19;20006;-65
2022/04/21 03:48:06;;;;;;;0.00;0.00;;;;;;;12.06;57.87;100648.59;7363082;19;20010;-65
2022/04/21 03:50:33;;;;;;;0.00;0.00;;;;;;;12.07;58.15;100639.88;7353401;19;20776;-63
2022/04/21 03:52:59;;;;;;;0.00;0.00;;;;;;;12.09;58.40;100639.81;7359881;19;20019;-63
2022/04/21 03:55:25;;;;;;;0.00;0.00;;;;;;;11.94;58.44;100614.94;7357988;19;20344;-64
2022/04/21 03:57:51;;;;;;;0.00;0.00;;;;;;;12.13;58.48;100651.91;7362425;19;20015;-64
2022/04/21 04:00:16;;;;;;;0.00;0.00;;;;;;;12.12;58.56;100639.72;7361406;19;20011;-63
2022/04/21 04:02:42;;;;;;;0.00;0.00;;;;;;;12.10;59.10;100631.91;7354657;19;20017;-64
2022/04/21 04:05:08;;;;;;;0.10;0.10;;;;;;;12.17;59.22;100638.69;7363018;19;20726;-65
2022/04/21 04:13:01;;;;;;;0.00;0.00;;;;;;;12.22;58.54;100635.09;7358464;19;20025;-64
2022/04/21 04:15:27;;;;;;;0.08;0.08;;;;;;;12.27;58.62;100638.41;7351990;19;20088;-64
2022/04/21 04:17:52;;;;;;;0.00;0.00;;;;;;;12.28;58.80;100635.75;7361674;19;20006;-63
2022/04/21 04:20:18;;;;;;;0.00;0.00;;;;;;;12.30;58.92;100638.31;7361094;19;20010;-64
2022/04/21 04:22:43;;;;;;;0.03;0.03;;;;;;;12.30;58.96;100630.44;7358660;19;20019;-65
2022/04/21 04:25:09;;;;;;;0.00;0.00;;;;;;;12.37;59.17;100645.09;7361227;19;20023;-64
2022/04/21 04:27:36;;;;;;;0.00;0.00;;;;;;;12.26;59.15;100620.97;7367977;19;20011;-65
2022/04/21 04:30:03;;;;;;;0.00;0.00;;;;;;;12.40;59.14;100637.13;7365000;19;20009;-64
2022/04/21 04:32:28;;;;;;;0.00;0.00;;;;;;;12.39;59.05;100633.63;7367886;19;20003;-65
2022/04/21 04:34:54;;;;;;;0.00;0.00;;;;;;;12.43;59.34;100644.88;7359905;19;20006;-65
2022/04/21 04:37:19;;;;;;;0.00;0.00;;;;;;;12.45;59.05;100635.22;7366668;19;20013;-62
2022/04/21 04:39:45;;;;;;;0.00;0.00;;;;;;;12.44;58.99;100630.88;7367957;19;20071;-64
2022/04/21 04:42:16;;;;;;;0.00;0.00;;;;;;;12.40;59.28;100632.72;7360183;19;20021;-62
2022/04/21 04:44:41;;;;;;;0.00;0.00;;;;;;;12.36;58.93;100611.91;7367387;19;20055;-63
2022/04/21 04:47:07;;;;;;;0.00;0.00;;;;;;;12.46;59.27;100629.06;7358975;19;20010;-63
2022/04/21 04:49:32;;;;;;;0.00;0.00;;;;;;;12.48;59.36;100627.25;7367455;19;20014;-64
2022/04/21 04:51:57;;;;;;;0.00;0.00;;;;;;;12.47;58.80;100625.56;7359068;19;20002;-63
2022/04/21 04:54:23;;;;;;;0.00;0.00;;;;;;;12.50;59.29;100630.69;7368535;19;20062;-63
2022/04/21 04:56:48;;;;;;;0.00;0.00;;;;;;;12.52;59.31;100623.66;7360201;19;20014;-64
2022/04/21 04:59:14;;;;;;;0.00;0.00;;;;;;;12.52;58.58;100622.75;7365629;19;20006;-65
2022/04/21 05:01:45;;;;;;;0.00;0.00;;;;;;;12.58;58.49;100619.97;7365594;19;20367;-63
2022/04/21 05:04:19;;;;;;;0.00;0.00;;;;;;;12.51;58.50;100606.19;7365331;19;20102;-64
2022/04/21 05:06:51;;;;;;;0.00;0.00;;;;;;;12.60;59.14;100633.88;7361930;19;20008;-64
2022/04/21 05:09:18;;;;;;;0.00;0.00;;;;;;;12.57;59.33;100626.97;7364719;19;20010;-64
2022/04/21 05:11:46;;;;;;;0.00;0.00;;;;;;;12.61;59.53;100625.09;7367267;19;20014;-63
2022/04/21 05:14:15;;;;;;;0.00;0.00;;;;;;;12.61;59.41;100628.56;7364249;19;20044;-64
2022/04/21 05:16:40;;;;;;;0.00;0.00;;;;;;;12.58;58.88;100628.69;7356436;19;20007;-65
2022/04/21 05:19:11;;;;;;;0.00;0.00;;;;;;;12.64;59.43;100623.25;7363057;19;20566;-64
2022/04/21 05:21:37;;;;;;;0.00;0.00;;;;;;;12.64;59.89;100628.47;7367320;19;20030;-62
2022/04/21 05:24:04;;;;;;;0.00;0.00;;;;;;;12.64;59.94;100627.63;7365214;19;21587;-65
2022/04/21 05:26:31;;;;;;;0.00;0.00;;;;;;;12.65;59.77;100630.19;7363377;19;20021;-63
2022/04/21 05:28:58;;;;;;;0.00;0.00;;;;;;;12.66;59.43;100621.41;7362233;19;20038;-65
2022/04/21 05:31:26;;;;;;;0.00;0.00;;;;;;;12.66;59.67;100636.28;7364088;19;20006;-65
2022/04/21 05:33:54;;;;;;;0.00;0.00;;;;;;;12.66;59.73;100624.03;7364611;19;20007;-65
2022/04/21 05:36:21;;;;;;;0.00;0.00;;;;;;;12.66;59.65;100637.13;7351596;19;20074;-64
2022/04/21 05:38:47;;;;;;;0.00;0.00;;;;;;;12.69;60.27;100636.19;7367756;19;20042;-64
2022/04/21 05:41:14;;;;;;;0.00;0.00;;;;;;;12.70;59.83;100636.13;7361866;19;20742;-62
2022/04/21 05:43:44;;;;;;;0.00;0.00;;;;;;;12.70;60.08;100633.50;7364489;19;20007;-65
2022/04/21 05:46:12;;;;;;;0.00;0.00;;;;;;;12.72;60.31;100644.81;7361611;19;20358;-65
2022/04/21 05:48:38;;;;;;;0.00;0.00;;;;;;;12.64;59.75;100623.25;7366068;19;20015;-64
2022/04/21 05:51:05;;;;;;;0.00;0.00;;;;;;;12.76;59.91;100642.09;7363970;19;20026;-65
2022/04/21 05:53:36;;;;;;;0.00;0.00;;;;;;;12.80;59.54;100644.56;7356140;19;20007;-64
2022/04/21 05:56:02;;;;;;;0.10;0.10;;;;;;;12.82;59.51;100649.75;7365205;19;20003;-63
2022/04/21 05:58:27;;;;;;;0.00;0.00;;;;;;;12.84;60.17;100655.81;7364471;19;20569;-65
2022/04/21 06:00:53;;;;;;;0.00;0.00;;;;;;;12.82;59.88;100641.88;7365161;19;20014;-64
2022/04/21 06:03:18;;;;;;;0.00;0.00;;;;;;;12.88;60.26;100657.41;7365791;19;20010;-64
2022/04/21 06:05:44;;;;;;;0.10;0.10;;;;;;;12.90;59.83;100661.69;7363523;19;20723;-65
2022/04/21 06:08:09;;;;;;;0.00;0.00;;;;;;;12.94;60.21;100657.22;7362304;19;20790;-65
2022/04/21 06:10:36;;;;;;;0.00;0.00;;;;;;;12.96;60.07;100660.63;7362113;19;20072;-62
2022/04/21 06:13:03;;;;;;;0.00;0.00;;;;;;;13.00;60.18;100662.25;7359202;19;20018;-65
2022/04/21 06:15:32;;;;;;;0.00;0.00;;;;;;;13.04;59.90;100666.47;7360940;19;20006;-65
2022/04/21 06:18:01;;;;;;;0.00;0.00;;;;;;;13.05;60.29;100660.31;7357441;19;20037;-64
2022/04/21 06:20:27;;;;;;;0.00;0.00;;;;;;;13.10;60.00;100668.91;7359502;19;20011;-64
2022/04/21 06:22:54;;;;;;;0.00;0.00;;;;;;;13.07;59.66;100658.50;7361142;19;20018;-64
2022/04/21 06:25:19;;;;;;;0.00;0.00;;;;;;;13.03;59.68;100645.53;7359628;19;20459;-65
2022/04/21 06:27:45;;;;;;;0.00;0.00;;;;;;;13.19;60.43;100663.34;7361654;19;20022;-63
2022/04/21 06:30:11;;;;;;;0.00;0.00;;;;;;;13.22;59.91;100668.50;7358915;19;20018;-62
2022/04/21 06:32:36;;;;;;;0.00;0.00;;;;;;;13.27;60.00;100662.25;7361240;19;20014;-64
2022/04/21 06:35:03;;;;;;;0.00;0.00;;;;;;;13.22;60.60;100652.75;7361152;19;20038;-64
2022/04/21 06:37:28;;;;;;;0.00;0.00;;;;;;;13.24;60.44;100650.97;7352163;19;20107;-63
2022/04/21 06:39:54;;;;;;;0.00;0.00;;;;;;;13.34;60.29;100661.16;7357504;19;20014;-64
2022/04/21 06:42:19;;;;;;;0.10;0.10;;;;;;;13.40;60.35;100661.78;7360436;19;20011;-64
2022/04/21 06:50:12;;;;;;;0.00;0.00;;;;;;;13.53;60.09;100670.06;7350296;19;20013;-64
2022/04/21 06:52:37;;;;;;;0.10;0.10;;;;;;;13.54;59.96;100669.16;7350063;19;20022;-64
2022/04/21 06:55:04;;;;;;;0.00;0.00;;;;;;;13.62;60.29;100679.38;7353350;19;20018;-64
2022/04/21 06:57:29;;;;;;;0.00;0.00;;;;;;;13.66;60.34;100681.84;7353241;19;20089;-64
2022/04/21 06:59:55;;;;;;;0.00;0.00;;;;;;;13.72;60.61;100676.38;7351988;19;20122;-65
2022/04/21 07:02:31;;;;;;;0.00;0.00;;;;;;;13.82;59.46;100683.91;7350662;19;20014;-65
2022/04/21 07:05:03;;;;;;;0.00;0.00;;;;;;;13.76;59.27;100664.00;7358957;19;20503;-63
2022/04/21 07:07:29;;;;;;;0.00;0.00;;;;;;;13.76;60.46;100659.59;7359020;19;20010;-64
2022/04/21 07:09:56;;;;;;;0.00;0.00;;;;;;;13.96;60.07;100687.75;7359875;19;20021;-64
2022/04/21 07:12:29;;;;;;;0.10;0.10;;;;;;;13.93;59.49;100671.25;7327026;19;20470;-64
2022/04/21 07:14:57;;;;;;;0.00;0.00;;;;;;;14.09;60.13;100690.78;7357558;19;20003;-64
2022/04/21 07:17:22;;;;;;;0.00;0.00;;;;;;;14.11;59.93;100699.47;7356745;19;20024;-63
2022/04/21 07:19:48;;;;;;;0.00;0.00;;;;;;;14.13;59.96;100702.88;7361062;19;20002;-64
2022/04/21 07:22:14;;;;;;;0.00;0.00;;;;;;;14.17;59.87;100696.59;7361020;19;20003;-63
2022/04/21 07:24:39;;;;;;;0.00;0.00;;;;;;;14.19;59.43;100709.66;7350115;19;20066;-64
2022/04/21 07:27:04;;;;;;;0.00;0.00;;;;;;;14.25;59.43;100715.56;7353977;19;20022;-64
2022/04/21 07:29:30;;;;;;;0.00;0.00;;;;;;;14.28;59.78;100710.16;7352694;19;19998;-64
2022/04/21 07:31:56;;;;;;;0.00;0.00;;;;;;;14.26;59.40;100696.25;7351466;19;20011;-63
2022/04/21 07:34:23;;;;;;;0.00;0.00;;;;;;;14.40;59.08;100718.53;7354275;19;20046;-65
2022/04/21 07:36:49;;;;;;;0.00;0.00;;;;;;;14.43;58.68;100718.38;7359766;19;20010;-64
2022/04/21 07:39:14;;;;;;;0.00;0.00;;;;;;;14.47;58.54;100720.00;7357338;19;20490;-64
2022/04/21 07:41:40;;;;;;;0.00;0.00;;;;;;;14.53;58.64;100725.03;7356378;19;20007;-65
2022/04/21 07:44:05;;;;;;;0.00;0.00;;;;;;;14.53;58.02;100725.88;7356778;19;20013;-63
2022/04/21 07:46:32;;;;;;;0.00;0.00;;;;;;;14.59;57.89;100726.56;7360555;19;20018;-65
2022/04/21 07:51:42;;;;;;;0.00;0.00;;;;;;;14.66;57.78;100735.94;7352235;19;20023;-64
2022/04/21 07:54:07;;;;;;;0.00;0.00;;;;;;;14.70;58.13;100737.50;7351619;19;20016;-63
2022/04/21 07:56:32;;;;;;;0.00;0.00;;;;;;;14.72;58.05;100736.56;7360826;19;20017;-63
2022/04/21 07:58:58;;;;;;;0.10;0.10;;;;;;;14.74;57.94;100742.59;7351033;19;20038;-64
2022/04/21 08:01:24;;;;;;;0.00;0.00;;;;;;;14.77;58.06;100754.78;7355915;19;20026;-62
2022/04/21 08:03:49;;;;;;;0.00;0.00;;;;;;;14.76;58.04;100743.41;7348983;19;20012;-62
2022/04/21 08:06:15;;;;;;;0.03;0.03;;;;;;;14.84;57.72;100744.88;7351850;19;20081;-65
2022/04/21 08:08:43;;;;;;;0.00;0.00;;;;;;;14.81;57.17;100730.09;7360672;19;20015;-67
2022/04/21 08:11:08;;;;;;;0.00;0.00;;;;;;;14.91;57.66;100746.34;7361428;19;20553;-64
2022/04/21 08:13:34;;;;;;;0.10;0.10;;;;;;;14.86;57.22;100732.53;7352559;19;20476;-67
2022/04/21 08:15:59;;;;;;;0.00;0.00;;;;;;;15.01;57.00;100758.22;7354245;19;20640;-64
2022/04/21 08:18:25;;;;;;;0.00;0.00;;;;;;;15.08;57.07;100753.56;7351825;19;20017;-64
2022/04/21 08:20:53;;;;;;;0.05;0.05;;;;;;;15.15;56.73;100755.00;7355882;19;20002;-65
2022/04/21 08:23:19;;;;;;;0.00;0.00;;;;;;;15.18;57.02;100754.88;7352289;19;20454;-62
2022/04/21 08:33:56;;;;;;;0.00;0.00;;;;;;;15.56;55.24;100766.44;7361387;19;20023;-63
2022/04/21 08:36:22;;;;;;;0.00;0.00;;;;;;;15.62;54.92;100766.19;7339747;19;20003;-63
2022/04/21 08:38:47;;;;;;;0.00;0.00;;;;;;;15.64;54.04;100769.66;7357337;19;19998;-63
2022/04/21 08:41:17;;;;;;;0.00;0.00;;;;;;;15.71;54.46;100768.47;7353536;19;20014;-63
2022/04/21 08:43:45;;;;;;;0.10;0.10;;;;;;;15.74;54.46;100778.88;7349619;19;20600;-63
2022/04/21 08:46:16;;;;;;;0.00;0.00;;;;;;;15.79;53.98;100771.63;7347710;19;20010;-64
2022/04/21 08:48:43;;;;;;;0.00;0.00;;;;;;;15.85;53.36;100778.41;7353372;19;20003;-66
2022/04/21 08:51:09;;;;;;;0.00;0.00;;;;;;;15.95;53.15;100781.50;7353408;19;20014;-63
2022/04/21 08:53:34;;;;;;;0.00;0.00;;;;;;;16.06;53.25;100781.88;7354583;19;20002;-65
2022/04/21 08:56:00;;;;;;;0.03;0.03;;;;;;;16.16;52.22;100777.91;7337236;19;20006;-64
2022/04/21 08:58:26;;;;;;;0.00;0.00;;;;;;;16.38;52.04;100782.22;7356216;19;20010;-63
2022/04/21 09:00:54;;;;;;;0.00;0.00;;;;;;;16.53;51.50;100781.53;7357239;19;20124;-64
2022/04/21 09:03:19;;;;;;;0.00;0.00;;;;;;;16.67;51.32;100789.63;7352067;19;20784;-64
2022/04/21 09:05:45;;;;;;;0.00;0.00;;;;;;;16.82;51.05;100781.03;7357706;19;20066;-64
2022/04/21 09:08:22;;;;;;;0.00;0.00;;;;;;;17.06;51.05;100778.16;7352103;19;20026;-63
2022/04/21 09:11:02;;;;;;;0.00;0.00;;;;;;;17.22;50.48;100773.84;7359387;19;20486;-62
2022/04/21 09:13:39;;;;;;;0.00;0.00;;;;;;;17.43;50.57;100778.97;7356392;19;20025;-63
2022/04/21 09:16:06;;;;;;;0.00;0.00;;;;;;;17.59;49.28;100777.31;7361532;19;20009;-64
2022/04/21 09:18:42;;;;;;;0.00;0.00;;;;;;;17.78;49.40;100780.72;7359151;19;20016;-64
2022/04/21 09:21:14;;;;;;;0.00;0.00;;;;;;;17.88;48.77;100787.25;7354333;19;20783;-63
2022/04/21 09:23:40;;;;;;;0.00;0.00;;;;;;;17.95;48.78;100781.66;7366094;19;20648;-61
2022/04/21 09:26:17;;;;;;;0.00;0.00;;;;;;;18.09;48.09;100777.34;7362699;19;20017;-61
2022/04/21 09:28:52;;;;;;;0.00;0.00;;;;;;;18.33;48.31;100782.28;7367382;19;20074;-62
2022/04/21 09:31:18;;;;;;;0.10;0.10;;;;;;;18.40;48.20;100776.59;7338431;19;20009;-63
2022/04/21 09:33:47;;;;;;;0.00;0.00;;;;;;;18.64;47.88;100786.75;7364896;19;21122;-64
2022/04/21 09:36:12;;;;;;;0.08;0.08;;;;;;;18.84;47.42;100783.03;7362043;19;20002;-64
2022/04/21 09:38:38;;;;;;;0.10;0.10;;;;;;;19.08;46.38;100786.09;7361473;19;22540;-65
2022/04/21 09:41:09;;;;;;;0.00;0.00;;;;;;;19.40;46.70;100786.91;7364923;19;20514;-62
2022/04/21 09:43:37;;;;;;;0.00;0.00;;;;;;;19.55;46.43;100786.00;7361734;19;20081;-64
2022/04/21 09:46:20;;;;;;;0.10;0.10;;;;;;;19.98;46.98;100793.25;7365715;19;20014;-63
2022/04/21 09:48:50;;;;;;;0.00;0.00;;;;;;;20.18;45.50;100787.59;7363007;19;20011;-64
2022/04/21 09:51:17;;;;;;;0.00;0.00;;;;;;;20.48;45.02;100787.50;7342145;19;20013;-63
2022/04/21 09:53:59;;;;;;;0.10;0.10;;;;;;;20.88;46.25;100791.16;7355331;19;20026;-65
2022/04/21 09:56:41;;;;;;;0.00;0.00;;;;;;;21.19;44.61;100789.16;7365531;19;20007;-63
2022/04/21 09:59:11;;;;;;;0.00;0.00;;;;;;;21.44;42.67;100783.97;7361432;19;20434;-64
2022/04/21 10:01:41;;;;;;;0.08;0.08;;;;;;;21.67;42.64;100773.56;7364706;19;20812;-66
2022/04/21 10:04:12;;;;;;;0.00;0.00;;;;;;;21.99;42.75;100788.16;7364646;19;20060;-62
2022/04/21 10:06:39;;;;;;;0.10;0.10;;;;;;;22.15;40.80;100785.34;7363265;19;20513;-65
2022/04/21 10:09:05;;;;;;;0.08;0.08;;;;;;;22.36;39.94;100788.31;7356966;19;20040;-63
2022/04/21 10:11:31;;;;;;;0.10;0.10;;;;;;;22.58;39.34;100792.09;7351843;19;20021;-63
2022/04/21 10:13:57;;;;;;;0.00;0.00;;;;;;;22.70;39.69;100772.56;7352928;19;20014;-63
2022/04/21 10:16:26;;;;;;;0.00;0.00;;;;;;;23.03;40.29;100794.13;7363137;19;20010;-63
2022/04/21 10:18:54;;;;;;;0.03;0.03;;;;;;;23.19;39.22;100790.31;7361001;19;20081;-64
2022/04/21 10:21:29;;;;;;;0.00;0.00;;;;;;;23.51;40.47;100791.41;7354954;19;20022;-60
2022/04/21 10:23:56;;;;;;;0.00;0.00;;;;;;;23.47;37.47;100795.31;7364256;19;20010;-65
2022/04/21 10:26:34;;;;;;;0.00;0.00;;;;;;;23.62;38.64;100784.44;7358344;19;20018;-64
2022/04/21 10:29:20;;;;;;;0.10;0.10;;;;;;;23.61;38.90;100788.06;7356547;19;20009;-63
2022/04/21 10:32:05;;;;;;;0.00;0.00;;;;;;;23.49;39.44;100753.38;7364161;19;20010;-65
2022/04/21 10:34:34;;;;;;;0.00;0.00;;;;;;;23.75;38.10;100790.56;7362645;19;19999;-65
2022/04/21 10:37:15;;;;;;;0.10;0.10;;;;;;;23.89;38.61;100784.19;7353308;19;20021;-62
2022/04/21 10:40:09;;;;;;;0.00;0.00;;;;;;;24.12;39.43;100787.72;7362204;19;19999;-64
2022/04/21 10:42:52;;;;;;;0.08;0.08;;;;;;;24.43;39.37;100789.72;7253183;19;2004399;-63
2022/04/21 10:45:25;;;;;;;0.10;0.10;;;;;;;24.66;36.90;100787.03;7354968;19;20033;-64
2022/04/21 10:48:07;;;;;;;0.00;0.00;;;;;;;24.97;37.88;100786.22;7359281;19;20047;-64
2022/04/21 10:50:33;;;;;;;0.10;0.10;;;;;;;25.10;35.46;100781.63;7351628;19;20015;-64
2022/04/21 10:58:33;;;;;;;0.10;0.10;;;;;;;25.97;36.08;100786.81;7355599;19;20038;-64
2022/04/21 11:01:15;;;;;;;0.10;0.10;;;;;;;26.26;36.47;100780.78;7361961;19;20127;-65
2022/04/21 11:03:42;;;;;;;0.00;0.00;;;;;;;26.30;33.43;100793.72;7356932;19;20065;-65
2022/04/21 11:06:12;;;;;;;0.00;0.00;;;;;;;26.61;34.15;100785.69;7361490;19;20161;-64
2022/04/21 11:08:38;;;;;;;0.10;0.10;;;;;;;26.81;33.48;100781.25;7353224;19;20909;-63
2022/04/21 11:11:05;;;;;;;0.10;0.10;;;;;;;27.11;33.76;100788.38;7358210;19;20014;-65
2022/04/21 11:13:49;;;;;;;0.00;0.00;;;;;;;27.55;34.76;100786.13;7349789;19;20007;-64
2022/04/21 11:16:42;;;;;;;0.10;0.10;;;;;;;27.76;34.37;100791.38;7352714;19;20006;-64
2022/04/21 11:19:29;;;;;;;0.00;0.00;;;;;;;28.00;34.33;100781.00;7253356;19;2004398;-64
2022/04/21 11:22:14;;;;;;;0.00;0.00;;;;;;;28.02;33.60;100746.78;7358375;19;20002;-66
2022/04/21 11:24:54;;;;;;;0.10;0.10;;;;;;;28.42;33.31;100788.66;7361062;19;20030;-65
2022/04/21 11:27:21;;;;;;;0.10;0.10;;;;;;;28.39;30.03;100792.50;7357714;19;20475;-65
2022/04/21 11:29:46;;;;;;;0.10;0.10;;;;;;;28.45;30.62;100791.06;7358124;19;20027;-64
2022/04/21 11:32:15;;;;;;;0.03;0.03;;;;;;;28.59;31.05;100792.38;7352207;19;20014;-65
2022/04/21 11:34:42;;;;;;;0.08;0.08;;;;;;;28.62;30.10;100790.25;7352493;19;20798;-64
2022/04/21 11:37:07;;;;;;;0.10;0.10;;;;;;;28.74;30.35;100787.34;7358608;19;20859;-64
2022/04/21 11:39:37;;;;;;;0.00;0.00;;;;;;;28.98;30.07;100797.56;7356126;19;20003;-65
2022/04/21 11:42:03;;;;;;;0.00;0.00;;;;;;;29.01;29.79;100792.75;7355768;19;20002;-65
2022/04/21 11:44:28;;;;;;;0.00;0.00;;;;;;;29.15;29.49;100794.06;7357887;19;20002;-64
2022/04/21 11:46:54;;;;;;;0.10;0.10;;;;;;;29.28;29.37;100785.59;7353502;19;20010;-65
2022/04/21 11:49:19;;;;;;;0.00;0.00;;;;;;;29.44;29.16;100794.66;7361712;19;20041;-63
2022/04/21 11:51:52;;;;;;;0.00;0.00;;;;;;;29.67;29.73;100805.81;7354896;19;20006;-65
2022/04/21 11:54:17;;;;;;;0.10;0.10;;;;;;;29.71;28.48;100799.13;7362099;19;20010;-64
2022/04/21 11:56:50;;;;;;;0.00;0.00;;;;;;;29.98;29.27;100800.00;7360693;19;20097;-64
2022/04/21 11:59:15;;;;;;;0.05;0.05;;;;;;;29.98;27.77;100802.69;7362745;19;20006;-64
2022/04/21 12:07:16;;;;;;;0.03;0.03;;;;;;;30.25;28.44;100799.00;7360173;19;20013;-64
2022/04/21 12:09:42;;;;;;;0.00;0.00;;;;;;;30.22;27.12;100810.94;7358434;19;20381;-65
2022/04/21 12:12:10;;;;;;;0.10;0.10;;;;;;;30.29;26.77;100802.22;7361277;19;20026;-63
2022/04/21 12:14:39;;;;;;;0.10;0.10;;;;;;;30.39;27.36;100805.63;7358476;19;20033;-65